Time;durP1;ratioP1;P1;durP2;ratioP2;P2;SDS_P1;SDS_P2;PMS_P1;PMS_P2;Temp;Humidity;BMP_temperature;BMP_pressure;BME280_temperature;BME280_humidity;BME280_pressure;Samples;Min_cycle;Max_cycle;Signal;HPM_P1;HPM_P2
2023/08/12 00:02:10;;;;;;;8.90;5.40;;;;;;;17.19;69.32;99520.69;107019;1260;60417;-39
2023/08/12 00:04:38;;;;;;;9.00;4.80;;;;;;;17.17;69.53;99523.92;106934;1257;60422;-39
2023/08/12 00:07:05;;;;;;;5.90;4.60;;;;;;;17.14;69.76;99524.79;108916;1271;74300;-40
2023/08/12 00:09:33;;;;;;;6.60;5.10;;;;;;;17.13;69.86;99523.48;107713;1258;68242;-38
2023/08/12 00:12:01;;;;;;;9.00;5.10;;;;;;;17.13;70.02;99519.16;106953;1257;72770;-38
2023/08/12 00:14:28;;;;;;;7.40;4.80;;;;;;;17.17;70.07;99519.92;107026;1257;60414;-38
2023/08/12 00:16:56;;;;;;;6.70;5.10;;;;;;;17.21;70.06;99522.57;107022;1257;60472;-38
2023/08/12 00:19:23;;;;;;;5.90;5.40;;;;;;;17.22;70.13;99522.02;107094;1257;72580;-38
2023/08/12 00:21:52;;;;;;;10.90;5.60;;;;;;;17.22;70.14;99526.87;107046;1257;67719;-38
2023/08/12 00:24:20;;;;;;;8.40;6.40;;;;;;;17.21;70.21;99533.13;107116;1257;72699;-38
2023/08/12 00:26:47;;;;;;;7.80;5.50;;;;;;;17.21;70.23;99531.80;107077;1259;60499;-38
2023/08/12 00:29:15;;;;;;;8.20;5.40;;;;;;;17.24;70.30;99528.11;107009;1263;60514;-38
2023/08/12 00:31:43;;;;;;;8.80;5.80;;;;;;;17.32;70.19;99526.88;107072;1257;73871;-38
2023/08/12 00:34:10;;;;;;;8.10;5.60;;;;;;;17.37;70.17;99531.17;107101;1260;67670;-38
2023/08/12 00:36:38;;;;;;;6.10;5.40;;;;;;;17.38;70.13;99529.20;107159;1261;72742;-38
2023/08/12 00:39:06;;;;;;;8.70;6.20;;;;;;;17.41;70.09;99530.29;107091;1260;60418;-38
2023/08/12 00:41:33;;;;;;;8.50;5.50;;;;;;;17.40;69.95;99526.84;107086;1257;60442;-38
2023/08/12 00:44:02;;;;;;;6.20;4.90;;;;;;;17.45;69.87;99528.21;107016;1257;73847;-38
2023/08/12 00:46:29;;;;;;;8.10;5.00;;;;;;;17.49;69.60;99524.11;107017;1257;67756;-38
2023/08/12 00:48:57;;;;;;;6.60;5.00;;;;;;;17.48;69.58;99517.86;107018;1258;72710;-38
2023/08/12 00:51:25;;;;;;;6.60;5.30;;;;;;;17.43;69.62;99518.60;107076;1258;60428;-38
2023/08/12 00:53:52;;;;;;;7.30;5.10;;;;;;;17.35;69.73;99523.50;107039;1257;60547;-38
2023/08/12 00:56:20;;;;;;;10.80;5.60;;;;;;;17.28;69.89;99520.34;107145;1259;73880;-38
2023/08/12 00:58:48;;;;;;;8.40;4.50;;;;;;;17.25;70.04;99518.16;107046;1257;65331;-38
2023/08/12 01:01:17;;;;;;;6.60;5.10;;;;;;;17.26;70.13;99521.13;107018;1257;71845;-38
2023/08/12 01:03:45;;;;;;;7.60;4.70;;;;;;;17.20;70.33;99527.52;107151;1257;60328;-39
2023/08/12 01:06:13;;;;;;;7.80;5.40;;;;;;;17.16;70.53;99521.41;107198;1262;60716;-38
2023/08/12 01:08:41;;;;;;;7.70;5.50;;;;;;;17.10;70.62;99521.45;107042;1257;72583;-38
2023/08/12 01:11:20;;;;;;;7.70;5.20;;;;;;;17.05;70.80;99525.08;107027;1257;65982;-38
2023/08/12 01:14:06;;;;;;;7.10;5.30;;;;;;;17.04;70.90;99527.89;107136;1257;71736;-38
2023/08/12 01:16:36;;;;;;;9.30;5.40;;;;;;;17.02;70.99;99529.63;107109;1260;60947;-38
2023/08/12 01:19:04;;;;;;;9.90;5.60;;;;;;;16.97;71.41;99527.23;107202;1258;60297;-38
2023/08/12 01:21:34;;;;;;;8.30;5.90;;;;;;;16.91;71.63;99522.47;107131;1257;73937;-39
2023/08/12 01:24:01;;;;;;;6.70;5.40;;;;;;;16.86;71.82;99521.30;107037;1263;67597;-38
2023/08/12 01:26:29;;;;;;;8.40;5.30;;;;;;;16.82;71.98;99515.70;106995;1257;71468;-38
2023/08/12 01:29:09;;;;;;;6.50;4.90;;;;;;;16.84;72.06;99521.02;107163;1257;60490;-39
2023/08/12 01:32:27;;;;;;;6.00;5.10;;;;;;;16.84;72.07;99520.63;107074;1260;59279;-39
2023/08/12 01:35:09;;;;;;;8.60;5.90;;;;;;;16.76;72.33;99520.34;107043;1260;73954;-40
2023/08/12 01:37:37;;;;;;;6.80;5.80;;;;;;;16.70;72.59;99518.86;106897;1260;67868;-41
2023/08/12 01:40:05;;;;;;;8.50;5.80;;;;;;;16.66;72.77;99523.73;106891;1265;72708;-40
2023/08/12 01:42:33;;;;;;;8.40;5.50;;;;;;;16.65;72.91;99522.73;106961;1260;61799;-40
2023/08/12 01:45:01;;;;;;;6.90;5.40;;;;;;;16.64;73.06;99520.69;106913;1260;60559;-40
2023/08/12 01:47:29;;;;;;;6.90;5.10;;;;;;;16.63;73.27;99526.17;107017;1259;72569;-40
2023/08/12 01:49:57;;;;;;;6.70;5.70;;;;;;;16.58;73.54;99522.34;107068;1259;66628;-40
2023/08/12 01:52:24;;;;;;;8.60;5.80;;;;;;;16.52;73.83;99521.86;107028;1260;72690;-40
2023/08/12 01:54:54;;;;;;;5.70;5.10;;;;;;;16.51;74.03;99521.79;106926;1259;61774;-40
2023/08/12 01:57:22;;;;;;;8.50;5.30;;;;;;;16.52;74.23;99516.71;106914;1260;60403;-40
2023/08/12 01:59:51;;;;;;;6.20;5.60;;;;;;;16.47;74.38;99519.69;107053;1260;73872;-40
2023/08/12 02:02:18;;;;;;;7.00;5.70;;;;;;;16.42;74.67;99521.11;106986;1259;66611;-40
2023/08/12 02:04:46;;;;;;;7.10;5.90;;;;;;;16.41;74.82;99521.20;107304;1258;70405;-40
2023/08/12 02:07:13;;;;;;;6.40;4.90;;;;;;;16.40;74.73;99516.27;106990;1260;61682;-40
2023/08/12 02:09:41;;;;;;;6.10;5.30;;;;;;;16.48;74.75;99522.19;107000;1259;60431;-40
2023/08/12 02:12:09;;;;;;;8.40;5.80;;;;;;;16.46;74.78;99525.32;106897;1259;73806;-40
2023/08/12 02:14:36;;;;;;;9.10;6.20;;;;;;;16.41;74.91;99526.82;106978;1260;67995;-40
2023/08/12 02:17:05;;;;;;;6.90;5.60;;;;;;;16.38;75.06;99534.56;107183;1257;71388;-40
2023/08/12 02:19:33;;;;;;;6.50;5.00;;;;;;;16.41;75.09;99538.47;106942;1258;61718;-40
2023/08/12 02:22:01;;;;;;;8.80;6.00;;;;;;;16.47;74.78;99534.23;107034;1259;60387;-40
2023/08/12 02:24:29;;;;;;;6.70;5.90;;;;;;;16.46;74.77;99534.00;107032;1259;72640;-40
2023/08/12 02:26:58;;;;;;;7.30;6.10;;;;;;;16.41;75.02;99536.29;107109;1260;65794;-40
2023/08/12 02:29:26;;;;;;;9.60;6.30;;;;;;;16.36;75.40;99530.35;107002;1260;72725;-40
2023/08/12 02:31:53;;;;;;;9.70;5.50;;;;;;;16.37;75.55;99531.52;107061;1264;60484;-40
2023/08/12 02:34:21;;;;;;;7.80;5.90;;;;;;;16.40;75.52;99531.21;107062;1259;60412;-40
2023/08/12 02:36:49;;;;;;;7.50;5.80;;;;;;;16.39;75.69;99529.64;107007;1260;74019;-40
2023/08/12 02:39:16;;;;;;;6.40;5.70;;;;;;;16.38;75.88;99531.45;107151;1257;65768;-40
2023/08/12 02:41:44;;;;;;;7.30;6.20;;;;;;;16.34;76.08;99530.04;107102;1258;72657;-40
2023/08/12 02:44:11;;;;;;;7.00;5.70;;;;;;;16.35;76.14;99528.01;107109;1259;60453;-40
2023/08/12 02:46:39;;;;;;;7.40;5.90;;;;;;;16.38;76.05;99525.10;107086;1257;60460;-40
2023/08/12 02:49:06;;;;;;;6.90;5.90;;;;;;;16.37;76.11;99524.31;107016;1257;74391;-40
2023/08/12 02:51:34;;;;;;;6.80;6.10;;;;;;;16.35;76.15;99525.44;107017;1257;67865;-40
2023/08/12 02:54:02;;;;;;;7.90;6.30;;;;;;;16.32;76.13;99529.48;107037;1260;72680;-40
2023/08/12 02:56:30;;;;;;;5.80;5.20;;;;;;;16.33;76.16;99531.36;107128;1260;60430;-40
2023/08/12 02:58:57;;;;;;;6.90;5.30;;;;;;;16.37;76.11;99531.98;106888;1263;60294;-40
2023/08/12 03:01:25;;;;;;;6.90;5.60;;;;;;;16.38;76.02;99535.98;106927;1259;74467;-40
2023/08/12 03:03:53;;;;;;;7.80;6.10;;;;;;;16.35;76.11;99537.31;106930;1259;66770;-40
2023/08/12 03:06:21;;;;;;;7.80;6.20;;;;;;;16.31;76.35;99535.67;106908;1260;71536;-40
2023/08/12 03:08:48;;;;;;;6.50;5.00;;;;;;;16.32;76.49;99537.45;106999;1260;60395;-40
2023/08/12 03:11:18;;;;;;;6.70;5.70;;;;;;;16.36;76.28;99535.83;106946;1257;60492;-40
2023/08/12 03:13:45;;;;;;;7.70;5.90;;;;;;;16.37;76.26;99532.21;106877;1257;72887;-40
2023/08/12 03:16:14;;;;;;;9.40;6.70;;;;;;;16.34;76.34;99532.62;107140;1257;66767;-40
2023/08/12 03:18:43;;;;;;;9.20;6.40;;;;;;;16.32;76.40;99533.48;107030;1257;71382;-40
2023/08/12 03:21:11;;;;;;;7.60;5.90;;;;;;;16.29;76.63;99533.02;107056;1257;60427;-40
2023/08/12 03:23:40;;;;;;;6.00;5.40;;;;;;;16.31;76.63;99528.17;107098;1257;59683;-40
2023/08/12 03:26:08;;;;;;;9.50;5.80;;;;;;;16.36;76.63;99525.89;107156;1258;71711;-40
2023/08/12 03:28:36;;;;;;;13.20;6.10;;;;;;;16.37;76.63;99527.54;107194;1259;67580;-40
2023/08/12 03:31:04;;;;;;;8.80;6.30;;;;;;;16.34;76.69;99531.67;106983;1258;72673;-40
2023/08/12 03:33:33;;;;;;;8.80;6.40;;;;;;;16.31;76.86;99537.79;107033;1259;170575;-41
2023/08/12 03:37:29;;;;;;;6.90;5.40;;;;;;;16.30;76.97;99536.77;104309;1289;600891;-40
2023/08/12 03:39:57;;;;;;;9.00;5.10;;;;;;;16.30;76.76;99538.96;106576;1263;60428;-39
2023/08/12 03:42:26;;;;;;;7.10;5.80;;;;;;;16.32;76.82;99539.33;106532;1267;60095;-39
2023/08/12 03:44:54;;;;;;;8.90;6.30;;;;;;;16.32;77.02;99540.67;106670;1266;72247;-39
2023/08/12 03:47:23;;;;;;;6.70;6.00;;;;;;;16.30;77.12;99541.00;106661;1267;66314;-40
2023/08/12 03:49:51;;;;;;;8.90;5.90;;;;;;;16.29;77.20;99542.71;106712;1267;71470;-39
2023/08/12 03:52:19;;;;;;;6.40;5.70;;;;;;;16.32;77.01;99541.77;106658;1263;150927;-39
2023/08/12 03:54:47;;;;;;;6.70;5.80;;;;;;;16.33;77.07;99542.63;106714;1263;59215;-40
2023/08/12 03:57:15;;;;;;;8.10;6.20;;;;;;;16.32;77.23;99545.44;106795;1263;71009;-39
2023/08/12 03:59:42;;;;;;;7.60;6.20;;;;;;;16.30;77.48;99542.95;106754;1264;66338;-39
2023/08/12 04:02:11;;;;;;;6.90;5.70;;;;;;;16.28;77.62;99541.46;106727;1264;71077;-39
2023/08/12 04:04:38;;;;;;;6.10;5.50;;;;;;;16.31;77.77;99543.73;106673;1264;61710;-40
2023/08/12 04:07:06;;;;;;;7.10;5.80;;;;;;;16.36;77.66;99540.66;106687;1264;59577;-40
2023/08/12 04:09:33;;;;;;;6.60;5.90;;;;;;;16.42;77.55;99539.33;106710;1263;73074;-39
2023/08/12 04:12:02;;;;;;;8.20;6.40;;;;;;;16.43;77.63;99543.93;106741;1264;66813;-39
2023/08/12 04:14:30;;;;;;;7.80;5.80;;;;;;;16.43;77.63;99538.46;106807;1264;72674;-40
2023/08/12 04:16:57;;;;;;;7.00;5.60;;;;;;;16.48;77.59;99537.52;106856;1264;60463;-40
2023/08/12 04:19:25;;;;;;;9.20;5.70;;;;;;;16.55;77.42;99528.90;106713;1264;59698;-40
2023/08/12 04:21:52;;;;;;;7.00;6.30;;;;;;;16.61;77.31;99524.85;106748;1263;71777;-40
2023/08/12 04:24:20;;;;;;;6.60;5.80;;;;;;;16.63;77.18;99525.63;106714;1264;67560;-39
2023/08/12 04:26:47;;;;;;;7.70;6.80;;;;;;;16.66;77.35;99526.77;106736;1267;72714;-40
2023/08/12 04:29:16;;;;;;;6.80;6.00;;;;;;;16.70;77.33;99526.94;106772;1264;60458;-39
2023/08/12 04:31:44;;;;;;;9.50;5.70;;;;;;;16.79;76.98;99527.45;106741;1262;60047;-40
2023/08/12 04:34:11;;;;;;;6.80;6.00;;;;;;;16.86;76.55;99528.52;106818;1269;73053;-39
2023/08/12 04:36:39;;;;;;;7.30;6.30;;;;;;;16.92;76.72;99535.92;106692;1264;66151;-40
2023/08/12 04:39:10;;;;;;;6.30;5.70;;;;;;;16.95;76.60;99539.51;106695;1263;71400;-39
2023/08/12 04:41:38;;;;;;;7.40;6.30;;;;;;;16.95;75.93;99537.47;106698;1266;59676;-39
2023/08/12 04:44:06;;;;;;;7.60;6.10;;;;;;;16.98;75.76;99528.48;106699;1266;59469;-40
2023/08/12 04:46:34;;;;;;;7.30;5.80;;;;;;;17.00;75.72;99532.22;106690;1266;71868;-39
2023/08/12 04:49:02;;;;;;;7.80;5.70;;;;;;;17.02;75.67;99531.11;106789;1265;67750;-40
2023/08/12 04:51:29;;;;;;;7.20;6.10;;;;;;;17.03;75.87;99533.15;106532;1266;72701;-40
2023/08/12 04:53:57;;;;;;;7.70;6.10;;;;;;;17.04;75.91;99531.96;106543;1265;61685;-40
2023/08/12 04:56:28;;;;;;;7.40;5.80;;;;;;;17.10;75.65;99534.98;106560;1266;59490;-39
2023/08/12 04:58:56;;;;;;;9.60;6.30;;;;;;;17.16;75.27;99532.14;106564;1263;73099;-40
2023/08/12 05:01:24;;;;;;;7.70;6.70;;;;;;;17.18;75.18;99531.89;106597;1265;66671;-40
2023/08/12 05:03:52;;;;;;;8.50;6.90;;;;;;;17.17;75.13;99530.58;106633;1266;71495;-40
2023/08/12 05:06:19;;;;;;;7.60;6.20;;;;;;;17.17;75.32;99531.11;106598;1266;61722;-40
2023/08/12 05:08:47;;;;;;;7.60;6.00;;;;;;;17.23;75.21;99531.86;106704;1266;59926;-40
2023/08/12 05:11:15;;;;;;;9.30;6.10;;;;;;;17.30;74.83;99528.15;106695;1265;71823;-40
2023/08/12 05:13:44;;;;;;;8.00;6.40;;;;;;;17.33;74.82;99527.59;106708;1269;66786;-40
2023/08/12 05:16:14;;;;;;;7.90;6.10;;;;;;;17.34;74.89;99527.27;106500;1267;71429;-40
2023/08/12 05:18:42;;;;;;;8.10;6.20;;;;;;;17.36;74.88;99528.66;108588;1263;60448;-40
2023/08/12 05:21:09;;;;;;;7.60;6.20;;;;;;;17.45;74.41;99526.98;106729;1264;59571;-39
2023/08/12 05:23:37;;;;;;;6.70;5.80;;;;;;;17.55;74.31;99529.41;106656;1265;72089;-39
2023/08/12 05:26:05;;;;;;;9.20;6.40;;;;;;;17.62;74.08;99528.36;106610;1269;66647;-40
2023/08/12 05:28:32;;;;;;;9.00;6.40;;;;;;;17.67;74.06;99535.39;106728;1265;72736;-40
2023/08/12 05:31:00;;;;;;;7.90;6.50;;;;;;;17.73;73.83;99538.08;106710;1267;63572;-40
2023/08/12 05:33:27;;;;;;;6.60;5.40;;;;;;;17.84;73.57;99533.61;106714;1263;60080;-40
2023/08/12 05:35:55;;;;;;;8.10;5.50;;;;;;;17.95;73.40;99534.78;106743;1263;73161;-40
2023/08/12 05:38:22;;;;;;;8.50;6.00;;;;;;;18.03;72.88;99535.04;106797;1264;67946;-41
2023/08/12 05:40:50;;;;;;;6.80;6.20;;;;;;;18.09;72.58;99534.28;106774;1263;73005;-41
2023/08/12 05:43:18;;;;;;;7.30;5.30;;;;;;;18.14;72.04;99530.45;106713;1263;61695;-40
2023/08/12 05:45:45;;;;;;;6.10;5.40;;;;;;;18.22;71.69;99526.55;106687;1263;59225;-41
2023/08/12 05:48:13;;;;;;;6.20;5.40;;;;;;;18.31;71.21;99532.81;106739;1263;73105;-40
2023/08/12 05:50:40;;;;;;;6.10;5.10;;;;;;;18.36;71.07;99533.31;106743;1263;67869;-39
2023/08/12 05:53:08;;;;;;;5.80;5.20;;;;;;;18.42;71.37;99536.47;106712;1264;72708;-39
2023/08/12 05:55:35;;;;;;;6.70;5.90;;;;;;;18.49;70.77;99541.73;106802;1263;59621;-39
2023/08/12 05:58:04;;;;;;;9.10;5.50;;;;;;;18.55;70.41;99542.80;106722;1264;60036;-39
2023/08/12 06:00:32;;;;;;;6.80;4.70;;;;;;;18.65;69.67;99541.44;106686;1263;73119;-40
2023/08/12 06:03:12;;;;;;;9.90;5.30;;;;;;;18.74;68.60;99546.04;106825;1263;66292;-38
2023/08/12 06:05:41;;;;;;;7.00;5.50;;;;;;;18.76;68.41;99541.16;106782;1264;73110;-39
2023/08/12 06:08:09;;;;;;;6.20;5.20;;;;;;;18.75;68.30;99537.16;106670;1263;60141;-39
2023/08/12 06:10:36;;;;;;;7.00;5.30;;;;;;;18.72;68.21;99544.27;106693;1263;59724;-39
2023/08/12 06:13:07;;;;;;;7.30;5.30;;;;;;;18.70;68.46;99543.49;106773;1263;73035;-39
2023/08/12 06:15:34;;;;;;;5.60;4.50;;;;;;;18.76;68.66;99550.66;106728;1263;67655;-39
2023/08/12 06:18:02;;;;;;;6.00;5.20;;;;;;;18.84;68.48;99552.29;106625;1263;72702;-39
2023/08/12 06:20:30;;;;;;;6.00;5.10;;;;;;;18.88;68.06;99554.75;106664;1264;59580;-39
2023/08/12 06:22:58;;;;;;;8.30;5.90;;;;;;;18.89;68.13;99555.30;106668;1264;59612;-39
2023/08/12 06:25:29;;;;;;;9.50;5.80;;;;;;;18.91;68.26;99552.36;107154;1256;71830;-38
2023/08/12 06:28:01;;;;;;;7.30;5.10;;;;;;;18.94;67.93;99553.90;107265;1257;66611;-39
2023/08/12 06:30:29;;;;;;;7.60;5.00;;;;;;;18.99;67.95;99548.98;107208;1261;73140;-38
2023/08/12 06:32:56;;;;;;;8.20;5.70;;;;;;;19.04;67.14;99547.88;107226;1256;60156;-38
2023/08/12 06:35:24;;;;;;;8.40;5.80;;;;;;;19.02;67.48;99548.31;107143;1254;59528;-38
2023/08/12 06:37:52;;;;;;;8.00;5.60;;;;;;;19.00;67.28;99546.84;107265;1255;73069;-38
2023/08/12 06:40:20;;;;;;;8.00;5.30;;;;;;;19.02;66.73;99551.54;107206;1254;67581;-38
2023/08/12 06:42:47;;;;;;;6.30;4.90;;;;;;;19.02;66.71;99548.39;107055;1257;71384;-38
2023/08/12 06:45:15;;;;;;;7.00;4.70;;;;;;;19.09;67.06;99552.29;107039;1261;61687;-38
2023/08/12 06:47:42;;;;;;;5.90;5.30;;;;;;;19.19;66.90;99547.94;107016;1260;59198;-38
2023/08/12 06:50:10;;;;;;;5.60;4.80;;;;;;;19.29;67.00;99551.02;107274;1256;73157;-38
2023/08/12 06:52:38;;;;;;;6.30;5.00;;;;;;;19.40;66.88;99544.51;107204;1258;67583;-38
2023/08/12 06:55:06;;;;;;;6.90;5.00;;;;;;;19.54;66.17;99552.83;107126;1255;71402;-38
2023/08/12 06:57:34;;;;;;;6.30;4.90;;;;;;;19.63;65.44;99543.17;107344;1256;59972;-39
2023/08/12 07:00:02;;;;;;;6.40;4.70;;;;;;;19.76;65.13;99543.77;107171;1254;60005;-39
2023/08/12 07:02:29;;;;;;;5.80;4.30;;;;;;;19.96;64.61;99542.82;107242;1255;71802;-40
2023/08/12 07:04:57;;;;;;;5.50;4.20;;;;;;;20.15;64.08;99542.05;107265;1255;67538;-40
2023/08/12 07:07:25;;;;;;;7.90;4.40;;;;;;;20.29;64.33;99538.27;107191;1257;71713;-40
2023/08/12 07:09:52;;;;;;;7.90;5.10;;;;;;;20.44;63.19;99538.64;107179;1254;59613;-40
2023/08/12 07:12:20;;;;;;;6.20;5.60;;;;;;;20.56;62.77;99531.11;107205;1257;60004;-40
2023/08/12 07:14:51;;;;;;;5.50;4.50;;;;;;;20.67;62.48;99534.52;107136;1257;73054;-40
2023/08/12 07:17:19;;;;;;;5.00;4.50;;;;;;;20.78;62.21;99528.08;107255;1260;67857;-40
2023/08/12 07:19:47;;;;;;;10.50;4.50;;;;;;;20.88;61.87;99531.50;107226;1257;71425;-40
2023/08/12 07:22:19;;;;;;;6.80;4.70;;;;;;;20.96;61.27;99527.55;107126;1257;59743;-40
2023/08/12 07:24:46;;;;;;;;;;;;;;;21.02;60.42;99528.67;107238;1257;59641;-40
2023/08/12 07:27:14;;;;;;;6.40;4.30;;;;;;;21.02;59.77;99526.16;107222;1260;73524;-39
2023/08/12 07:29:41;;;;;;;5.80;4.30;;;;;;;21.00;59.84;99520.94;107271;1254;66780;-39
2023/08/12 07:32:09;;;;;;;7.70;4.40;;;;;;;20.97;59.12;99527.67;107236;1260;71357;-39
2023/08/12 07:34:37;;;;;;;6.80;4.60;;;;;;;20.96;59.38;99523.77;107214;1257;59605;-39
2023/08/12 07:37:06;;;;;;;5.80;4.50;;;;;;;20.99;59.71;99527.72;107244;1257;60021;-39
2023/08/12 07:39:37;;;;;;;5.80;4.20;;;;;;;21.07;59.32;99527.71;107216;1256;73044;-39
2023/08/12 07:42:13;;;;;;;3.90;3.50;;;;;;;21.22;59.40;99524.34;107044;1258;66430;-38
2023/08/12 07:44:41;;;;;;;5.20;3.90;;;;;;;21.35;58.66;99521.63;107259;1257;72745;-38
2023/08/12 07:47:09;;;;;;;7.50;4.60;;;;;;;21.45;58.26;99522.89;107090;1257;60335;-38
2023/08/12 07:49:36;;;;;;;5.00;3.70;;;;;;;21.57;58.54;99517.10;107166;1257;60319;-38
2023/08/12 07:52:05;;;;;;;6.00;4.10;;;;;;;21.75;57.91;99521.02;107206;1257;73875;-39
2023/08/12 07:54:32;;;;;;;8.10;3.80;;;;;;;21.88;56.33;99517.64;107179;1260;67859;-39
2023/08/12 07:57:00;;;;;;;4.90;3.80;;;;;;;21.97;55.76;99512.68;107135;1257;71405;-38
2023/08/12 07:59:28;;;;;;;6.80;3.50;;;;;;;22.04;54.58;99517.80;107113;1258;60270;-39
2023/08/12 08:01:55;;;;;;;9.00;3.80;;;;;;;22.05;54.54;99512.73;107205;1257;60424;-39
2023/08/12 08:04:23;;;;;;;5.70;3.50;;;;;;;22.08;54.63;99516.27;107224;1257;73842;-39
2023/08/12 08:06:50;;;;;;;5.10;3.70;;;;;;;22.12;55.33;99510.90;107259;1256;67886;-39
2023/08/12 08:09:18;;;;;;;4.40;3.70;;;;;;;22.20;55.30;99513.06;107191;1258;72707;-39
2023/08/12 08:11:46;;;;;;;5.20;3.50;;;;;;;22.25;54.52;99513.08;107262;1257;61989;-38
2023/08/12 08:14:14;;;;;;;5.30;3.50;;;;;;;22.25;54.07;99509.92;107236;1256;60361;-39
2023/08/12 08:16:42;;;;;;;6.40;3.80;;;;;;;22.24;53.21;99512.95;107302;1257;74912;-38
2023/08/12 08:19:10;;;;;;;5.50;3.80;;;;;;;22.20;52.98;99515.03;107323;1257;67900;-40
2023/08/12 08:21:40;;;;;;;10.90;4.30;;;;;;;22.16;53.35;99516.55;107146;1262;72775;-40
2023/08/12 08:24:11;;;;;;;4.00;3.60;;;;;;;22.18;53.82;99517.54;107605;1256;60564;-40
2023/08/12 08:26:40;;;;;;;4.00;3.30;;;;;;;22.23;53.53;99511.55;107296;1259;60320;-40
2023/08/12 08:29:08;;;;;;;8.50;3.90;;;;;;;22.27;53.45;99510.02;107235;1256;72582;-40
2023/08/12 08:31:36;;;;;;;4.20;3.30;;;;;;;22.30;53.40;99509.17;107316;1261;66434;-40
2023/08/12 08:34:04;;;;;;;5.30;3.40;;;;;;;22.32;53.47;99508.25;107258;1256;71393;-40
2023/08/12 08:36:31;;;;;;;4.80;3.60;;;;;;;22.31;53.95;99507.89;107209;1257;60441;-40
2023/08/12 08:38:59;;;;;;;5.20;3.50;;;;;;;22.31;54.54;99502.13;107269;1257;60952;-40
2023/08/12 08:41:27;;;;;;;4.30;3.80;;;;;;;22.33;53.78;99507.02;107233;1257;73869;-40
2023/08/12 08:43:55;;;;;;;4.40;3.50;;;;;;;22.37;53.97;99508.10;107297;1257;68129;-40
2023/08/12 08:46:22;;;;;;;4.60;3.80;;;;;;;22.42;54.34;99504.66;107240;1257;71446;-40
2023/08/12 08:48:50;;;;;;;5.80;3.70;;;;;;;22.48;53.71;99501.81;107098;1257;60441;-40
2023/08/12 08:51:19;;;;;;;5.50;3.70;;;;;;;22.51;53.40;99499.83;107106;1257;60087;-40
2023/08/12 08:53:46;;;;;;;6.30;3.70;;;;;;;22.51;53.58;99499.83;107130;1256;72691;-40
2023/08/12 08:56:14;;;;;;;7.30;3.80;;;;;;;22.52;54.04;99499.71;107028;1257;67979;-40
2023/08/12 08:58:42;;;;;;;5.60;3.30;;;;;;;22.58;54.31;99501.95;107247;1257;73189;-40
2023/08/12 09:01:10;;;;;;;4.60;3.30;;;;;;;22.65;53.22;99501.66;107218;1257;60456;-40
2023/08/12 09:03:38;;;;;;;5.00;3.40;;;;;;;22.74;53.60;99504.27;107130;1257;60385;-40
2023/08/12 09:06:06;;;;;;;6.00;3.50;;;;;;;22.88;53.61;99501.42;107243;1257;72698;-40
2023/08/12 09:08:33;;;;;;;3.50;3.20;;;;;;;23.06;51.58;99500.76;107057;1257;68181;-40
2023/08/12 09:11:02;;;;;;;4.70;3.50;;;;;;;23.19;51.56;99502.96;107044;1260;71453;-40
2023/08/12 09:13:29;;;;;;;4.90;3.60;;;;;;;23.31;51.69;99500.54;107233;1256;60440;-40
2023/08/12 09:15:57;;;;;;;5.70;4.00;;;;;;;23.45;51.06;99502.48;107241;1257;60415;-40
2023/08/12 09:18:25;;;;;;;4.70;3.90;;;;;;;23.60;50.81;99503.77;107218;1257;73028;-40
2023/08/12 09:20:53;;;;;;;6.20;4.60;;;;;;;23.76;50.07;99501.25;107223;1257;67578;-40
2023/08/12 09:23:21;;;;;;;4.60;3.50;;;;;;;23.96;49.97;99501.66;107189;1255;72706;-40
2023/08/12 09:25:48;;;;;;;4.00;3.20;;;;;;;24.14;49.57;99501.11;107283;1254;60398;-40
2023/08/12 09:28:16;;;;;;;7.90;4.20;;;;;;;24.32;47.79;99503.45;107267;1254;60280;-40
2023/08/12 09:30:49;;;;;;;8.50;4.40;;;;;;;24.46;47.78;99502.27;107262;1257;74323;-40
2023/08/12 09:33:17;;;;;;;4.10;3.10;;;;;;;24.57;46.71;99509.35;107224;1260;67704;-40
2023/08/12 09:35:45;;;;;;;4.10;3.20;;;;;;;24.65;45.89;99503.27;107068;1254;73062;-40
2023/08/12 09:38:13;;;;;;;5.50;3.70;;;;;;;24.68;45.82;99506.29;107340;1257;60402;-40
2023/08/12 09:40:41;;;;;;;5.10;2.90;;;;;;;24.71;46.03;99510.38;107322;1255;60291;-40
2023/08/12 09:43:11;;;;;;;4.50;3.10;;;;;;;24.80;46.05;99504.73;107334;1257;74339;-40
2023/08/12 09:45:39;;;;;;;5.00;3.20;;;;;;;24.88;46.14;99500.43;107291;1257;67671;-40
2023/08/12 09:48:09;;;;;;;3.90;3.10;;;;;;;24.91;45.68;99501.83;107337;1261;72620;-40
2023/08/12 09:50:37;;;;;;;4.40;2.90;;;;;;;24.93;46.13;99506.27;107297;1257;60546;-40
2023/08/12 09:53:05;;;;;;;5.20;3.20;;;;;;;24.97;46.03;99506.52;107282;1256;60403;-40
2023/08/12 09:55:33;;;;;;;9.40;3.50;;;;;;;25.03;45.99;99509.88;107165;1255;73840;-40
2023/08/12 09:58:01;;;;;;;4.60;3.60;;;;;;;25.09;45.98;99508.52;107225;1257;66530;-40
2023/08/12 10:00:29;;;;;;;5.10;3.60;;;;;;;25.20;45.73;99509.13;107010;1257;71999;-40
2023/08/12 10:02:56;;;;;;;6.50;3.10;;;;;;;25.32;45.10;99506.81;107193;1257;60403;-40
2023/08/12 10:05:36;;;;;;;5.40;3.10;;;;;;;25.47;44.88;99500.86;107204;1255;60524;-40
2023/08/12 10:08:04;;;;;;;4.80;3.00;;;;;;;25.65;44.88;99495.59;107109;1262;75538;-39
2023/08/12 10:10:33;;;;;;;5.10;3.10;;;;;;;25.75;44.71;99503.65;107106;1258;67792;-40
2023/08/12 10:13:01;;;;;;;4.30;3.20;;;;;;;25.81;44.35;99504.82;107261;1258;72708;-40
2023/08/12 10:15:29;;;;;;;4.40;2.90;;;;;;;25.82;43.62;99503.90;107327;1257;59743;-40
2023/08/12 10:17:57;;;;;;;4.30;3.30;;;;;;;25.78;43.97;99499.01;107243;1257;59591;-40
2023/08/12 10:20:24;;;;;;;8.00;3.30;;;;;;;25.70;44.53;99503.69;107209;1257;72627;-40
2023/08/12 10:22:52;;;;;;;5.00;3.40;;;;;;;25.61;44.56;99509.77;107220;1257;67585;-40
2023/08/12 10:25:23;;;;;;;6.10;3.90;;;;;;;25.49;44.70;99506.79;107201;1257;72713;-40
2023/08/12 10:27:51;;;;;;;6.60;4.00;;;;;;;25.35;43.64;99514.32;107290;1257;60429;-40
2023/08/12 10:30:20;;;;;;;10.30;5.20;;;;;;;25.27;43.89;99512.80;107267;1261;60473;-40
2023/08/12 10:32:48;;;;;;;4.30;3.50;;;;;;;25.33;44.31;99508.14;107256;1255;72546;-40
2023/08/12 10:35:16;;;;;;;5.10;3.10;;;;;;;25.48;43.91;99505.49;107112;1257;67581;-40
2023/08/12 10:37:48;;;;;;;4.20;2.90;;;;;;;25.64;43.43;99508.23;107250;1258;72712;-40
2023/08/12 10:40:22;;;;;;;4.50;2.90;;;;;;;25.71;44.07;99510.16;107150;1257;60425;-40
2023/08/12 10:42:50;;;;;;;4.00;3.20;;;;;;;25.73;43.84;99512.23;107243;1254;60399;-40
2023/08/12 10:45:18;;;;;;;3.10;2.80;;;;;;;25.73;43.79;99506.84;107169;1255;72555;-39
2023/08/12 10:48:16;;;;;;;3.70;2.80;;;;;;;25.81;43.28;99508.15;107267;1254;67576;-40
2023/08/12 10:50:46;;;;;;;4.80;3.00;;;;;;;25.97;42.78;99511.80;107239;1260;72729;-40
2023/08/12 10:53:20;;;;;;;5.40;3.30;;;;;;;26.05;41.92;99508.85;107248;1257;62236;-40
2023/08/12 10:55:48;;;;;;;4.00;2.80;;;;;;;26.08;42.07;99502.29;107149;1257;60838;-40
2023/08/12 10:58:45;;;;;;;3.40;2.80;;;;;;;26.13;41.84;99498.95;107215;1255;73870;-40
2023/08/12 11:01:16;;;;;;;4.00;2.70;;;;;;;26.27;41.56;99496.74;107209;1255;67716;-41
2023/08/12 11:03:44;;;;;;;3.50;3.00;;;;;;;26.39;41.40;99497.45;107262;1258;72693;-42
2023/08/12 11:06:12;;;;;;;4.50;2.70;;;;;;;26.50;40.91;99500.02;107191;1255;60440;-40
2023/08/12 11:08:47;;;;;;;3.30;3.00;;;;;;;26.55;40.21;99508.44;107154;1254;60447;-40
2023/08/12 11:11:24;;;;;;;4.70;2.60;;;;;;;26.54;40.73;99504.30;107237;1255;72581;-40
2023/08/12 11:13:58;;;;;;;5.90;2.80;;;;;;;26.53;40.03;99504.12;107057;1261;67623;-40
2023/08/12 11:16:35;;;;;;;4.10;2.90;;;;;;;26.41;39.77;99507.61;107148;1258;72730;-40
2023/08/12 11:19:03;;;;;;;9.60;6.10;;;;;;;26.22;40.40;99513.92;107255;1258;60629;-40
2023/08/12 11:21:31;;;;;;;6.40;3.90;;;;;;;26.02;41.16;99519.12;107100;1257;60063;-40
2023/08/12 11:23:58;;;;;;;5.40;3.30;;;;;;;25.85;41.66;99516.26;107588;1251;73977;-40
2023/08/12 11:26:26;;;;;;;4.30;3.00;;;;;;;25.73;41.93;99518.33;107309;1251;66759;-40
2023/08/12 11:28:54;;;;;;;3.90;2.90;;;;;;;25.61;42.01;99521.20;107550;1251;72955;-40
2023/08/12 11:31:22;;;;;;;4.30;3.00;;;;;;;25.48;42.66;99525.14;107594;1257;60430;-40
2023/08/12 11:33:52;;;;;;;6.90;3.10;;;;;;;25.41;43.17;99527.52;107622;1251;60315;-40